sensor_id;sensor_type;location;lat;lon;timestamp;temperature;humidity
2010;DHT22;1008;47.404;8.502;2022-11-15T00:00:28;9.10;99.90
2010;DHT22;1008;47.404;8.502;2022-11-15T00:02:55;8.90;99.90
2010;DHT22;1008;47.404;8.502;2022-11-15T00:05:22;8.90;99.90
2010;DHT22;1008;47.404;8.502;2022-11-15T00:07:48;8.80;99.90
2010;DHT22;1008;47.404;8.502;2022-11-15T00:10:15;8.70;99.90
2010;DHT22;1008;47.404;8.502;2022-11-15T00:12:42;8.80;99.90
2010;DHT22;1008;47.404;8.502;2022-11-15T00:15:10;8.80;99.90
2010;DHT22;1008;47.404;8.502;2022-11-15T00:17:37;8.80;99.90
2010;DHT22;1008;47.404;8.502;2022-11-15T00:20:04;8.80;99.90
2010;DHT22;1008;47.404;8.502;2022-11-15T00:22:32;8.80;99.90
2010;DHT22;1008;47.404;8.502;2022-11-15T00:24:59;8.90;99.90
2010;DHT22;1008;47.404;8.502;2022-11-15T00:27:26;8.90;99.90
2010;DHT22;1008;47.404;8.502;2022-11-15T00:29:53;8.90;99.90
2010;DHT22;1008;47.404;8.502;2022-11-15T00:32:21;8.90;99.90
2010;DHT22;1008;47.404;8.502;2022-11-15T00:34:48;8.90;99.90
2010;DHT22;1008;47.404;8.502;2022-11-15T00:37:15;8.90;99.90
2010;DHT22;1008;47.404;8.502;2022-11-15T00:39:42;8.80;99.90
2010;DHT22;1008;47.404;8.502;2022-11-15T00:42:08;8.90;99.90
2010;DHT22;1008;47.404;8.502;2022-11-15T00:44:35;8.40;99.90
2010;DHT22;1008;47.404;8.502;2022-11-15T00:47:02;8.40;99.90
2010;DHT22;1008;47.404;8.502;2022-11-15T00:49:30;8.30;99.90
2010;DHT22;1008;47.404;8.502;2022-11-15T00:51:57;8.40;99.90
2010;DHT22;1008;47.404;8.502;2022-11-15T00:54:23;8.60;99.90
2010;DHT22;1008;47.404;8.502;2022-11-15T00:56:50;8.50;99.90
2010;DHT22;1008;47.404;8.502;2022-11-15T00:59:17;8.80;99.90
2010;DHT22;1008;47.404;8.502;2022-11-15T01:01:44;8.60;99.90
2010;DHT22;1008;47.404;8.502;2022-11-15T01:04:10;8.40;99.90
2010;DHT22;1008;47.404;8.502;2022-11-15T01:06:38;8.50;99.90
2010;DHT22;1008;47.404;8.502;2022-11-15T01:09:05;8.60;99.90
2010;DHT22;1008;47.404;8.502;2022-11-15T01:11:32;8.60;99.90
2010;DHT22;1008;47.404;8.502;2022-11-15T01:13:59;8.50;99.90
2010;DHT22;1008;47.404;8.502;2022-11-15T01:16:26;8.60;99.90
2010;DHT22;1008;47.404;8.502;2022-11-15T01:18:52;8.70;99.90
2010;DHT22;1008;47.404;8.502;2022-11-15T01:21:19;8.80;99.90
2010;DHT22;1008;47.404;8.502;2022-11-15T01:23:48;8.80;99.90
2010;DHT22;1008;47.404;8.502;2022-11-15T01:26:15;8.80;99.90
2010;DHT22;1008;47.404;8.502;2022-11-15T01:28:42;8.80;99.90
2010;DHT22;1008;47.404;8.502;2022-11-15T01:31:12;8.80;99.90
2010;DHT22;1008;47.404;8.502;2022-11-15T01:33:39;8.80;99.90
2010;DHT22;1008;47.404;8.502;2022-11-15T01:36:07;9.00;99.90
2010;DHT22;1008;47.404;8.502;2022-11-15T01:38:34;8.90;99.90
2010;DHT22;1008;47.404;8.502;2022-11-15T01:41:02;8.90;99.90
2010;DHT22;1008;47.404;8.502;2022-11-15T01:43:31;8.80;99.90
2010;DHT22;1008;47.404;8.502;2022-11-15T01:46:00;8.60;99.90
2010;DHT22;1008;47.404;8.502;2022-11-15T01:48:31;8.50;99.90
2010;DHT22;1008;47.404;8.502;2022-11-15T01:51:00;8.50;99.90
2010;DHT22;1008;47.404;8.502;2022-11-15T01:53:30;8.50;99.90
2010;DHT22;1008;47.404;8.502;2022-11-15T01:55:59;8.60;99.90
2010;DHT22;1008;47.404;8.502;2022-11-15T01:58:30;8.50;99.90
2010;DHT22;1008;47.404;8.502;2022-11-15T02:00:57;8.50;99.90
2010;DHT22;1008;47.404;8.502;2022-11-15T02:03:30;8.50;99.90
2010;DHT22;1008;47.404;8.502;2022-11-15T02:05:59;8.50;99.90
2010;DHT22;1008;47.404;8.502;2022-11-15T02:08:26;8.60;99.90
2010;DHT22;1008;47.404;8.502;2022-11-15T02:10:53;8.60;99.90
2010;DHT22;1008;47.404;8.502;2022-11-15T02:13:20;8.50;99.90
2010;DHT22;1008;47.404;8.502;2022-11-15T02:15:57;8.50;99.90
2010;DHT22;1008;47.404;8.502;2022-11-15T02:18:29;8.80;99.90
2010;DHT22;1008;47.404;8.502;2022-11-15T02:21:07;8.50;99.90
2010;DHT22;1008;47.404;8.502;2022-11-15T02:23:57;8.50;99.90
2010;DHT22;1008;47.404;8.502;2022-11-15T02:27:07;8.60;99.90
2010;DHT22;1008;47.404;8.502;2022-11-15T02:29:55;8.70;99.90
2010;DHT22;1008;47.404;8.502;2022-11-15T02:32:31;8.80;99.90
2010;DHT22;1008;47.404;8.502;2022-11-15T02:35:04;8.80;99.90
2010;DHT22;1008;47.404;8.502;2022-11-15T02:37:42;8.80;99.90
2010;DHT22;1008;47.404;8.502;2022-11-15T02:40:15;8.70;99.90
2010;DHT22;1008;47.404;8.502;2022-11-15T02:42:50;8.60;99.90
2010;DHT22;1008;47.404;8.502;2022-11-15T02:45:40;8.60;99.90
2010;DHT22;1008;47.404;8.502;2022-11-15T02:48:11;8.60;99.90
2010;DHT22;1008;47.404;8.502;2022-11-15T02:50:38;9.10;99.90
2010;DHT22;1008;47.404;8.502;2022-11-15T02:53:05;8.70;99.90
2010;DHT22;1008;47.404;8.502;2022-11-15T02:55:35;8.70;99.90
2010;DHT22;1008;47.404;8.502;2022-11-15T03:00:58;8.80;99.90
2010;DHT22;1008;47.404;8.502;2022-11-15T03:03:48;8.70;99.90
2010;DHT22;1008;47.404;8.502;2022-11-15T03:06:24;8.70;99.90
2010;DHT22;1008;47.404;8.502;2022-11-15T03:09:01;8.70;99.90
2010;DHT22;1008;47.404;8.502;2022-11-15T03:11:32;8.60;99.90
2010;DHT22;1008;47.404;8.502;2022-11-15T03:14:05;8.70;99.90
2010;DHT22;1008;47.404;8.502;2022-11-15T03:16:37;8.70;99.90
2010;DHT22;1008;47.404;8.502;2022-11-15T03:19:12;8.80;99.90
2010;DHT22;1008;47.404;8.502;2022-11-15T03:21:40;8.80;99.90
2010;DHT22;1008;47.404;8.502;2022-11-15T03:24:08;8.80;99.90
2010;DHT22;1008;47.404;8.502;2022-11-15T03:26:36;8.80;99.90
2010;DHT22;1008;47.404;8.502;2022-11-15T03:29:08;9.00;99.90
2010;DHT22;1008;47.404;8.502;2022-11-15T03:31:39;8.90;99.90
2010;DHT22;1008;47.404;8.502;2022-11-15T03:34:20;8.90;99.90
2010;DHT22;1008;47.404;8.502;2022-11-15T03:36:50;9.00;99.90
2010;DHT22;1008;47.404;8.502;2022-11-15T03:39:17;9.00;99.90
2010;DHT22;1008;47.404;8.502;2022-11-15T03:41:48;8.90;99.90
2010;DHT22;1008;47.404;8.502;2022-11-15T03:44:21;9.20;99.90
2010;DHT22;1008;47.404;8.502;2022-11-15T03:46:58;9.10;99.90
2010;DHT22;1008;47.404;8.502;2022-11-15T03:49:31;9.00;99.90
2010;DHT22;1008;47.404;8.502;2022-11-15T03:52:00;8.80;99.90
2010;DHT22;1008;47.404;8.502;2022-11-15T03:54:28;8.90;99.90
2010;DHT22;1008;47.404;8.502;2022-11-15T03:56:55;8.90;99.90
2010;DHT22;1008;47.404;8.502;2022-11-15T03:59:22;8.80;99.90
2010;DHT22;1008;47.404;8.502;2022-11-15T04:01:48;8.80;99.90
2010;DHT22;1008;47.404;8.502;2022-11-15T04:04:15;8.80;99.90
2010;DHT22;1008;47.404;8.502;2022-11-15T04:06:43;8.80;99.90
2010;DHT22;1008;47.404;8.502;2022-11-15T04:09:10;8.80;99.90
2010;DHT22;1008;47.404;8.502;2022-11-15T04:11:37;8.80;99.90
2010;DHT22;1008;47.404;8.502;2022-11-15T04:14:03;9.00;99.90
2010;DHT22;1008;47.404;8.502;2022-11-15T04:16:30;8.70;99.90
2010;DHT22;1008;47.404;8.502;2022-11-15T04:18:57;8.70;99.90
2010;DHT22;1008;47.404;8.502;2022-11-15T04:21:42;8.60;99.90
2010;DHT22;1008;47.404;8.502;2022-11-15T04:24:27;8.60;99.90
2010;DHT22;1008;47.404;8.502;2022-11-15T04:26:53;8.70;99.90
2010;DHT22;1008;47.404;8.502;2022-11-15T04:29:20;8.60;99.90
2010;DHT22;1008;47.404;8.502;2022-11-15T04:32:02;8.60;99.90
2010;DHT22;1008;47.404;8.502;2022-11-15T04:34:29;8.40;99.90
2010;DHT22;1008;47.404;8.502;2022-11-15T04:36:58;8.50;99.90
2010;DHT22;1008;47.404;8.502;2022-11-15T04:39:42;8.30;99.90
2010;DHT22;1008;47.404;8.502;2022-11-15T04:42:10;8.40;99.90
2010;DHT22;1008;47.404;8.502;2022-11-15T04:44:37;8.50;99.90
2010;DHT22;1008;47.404;8.502;2022-11-15T04:47:04;8.50;99.90
2010;DHT22;1008;47.404;8.502;2022-11-15T04:49:31;8.40;99.90
2010;DHT22;1008;47.404;8.502;2022-11-15T04:51:59;8.40;99.90
2010;DHT22;1008;47.404;8.502;2022-11-15T04:54:26;8.50;99.90
2010;DHT22;1008;47.404;8.502;2022-11-15T04:56:52;8.50;99.90
2010;DHT22;1008;47.404;8.502;2022-11-15T04:59:19;8.40;99.90
2010;DHT22;1008;47.404;8.502;2022-11-15T05:01:46;8.40;99.90
2010;DHT22;1008;47.404;8.502;2022-11-15T05:04:13;8.60;99.90
2010;DHT22;1008;47.404;8.502;2022-11-15T05:06:45;8.30;99.90
2010;DHT22;1008;47.404;8.502;2022-11-15T05:09:13;8.30;99.90
2010;DHT22;1008;47.404;8.502;2022-11-15T05:11:40;8.30;99.90
2010;DHT22;1008;47.404;8.502;2022-11-15T05:14:07;8.30;99.90
2010;DHT22;1008;47.404;8.502;2022-11-15T05:16:34;8.30;99.90
2010;DHT22;1008;47.404;8.502;2022-11-15T05:19:00;8.60;99.90
2010;DHT22;1008;47.404;8.502;2022-11-15T05:21:27;8.40;99.90
2010;DHT22;1008;47.404;8.502;2022-11-15T05:23:54;8.40;99.90
2010;DHT22;1008;47.404;8.502;2022-11-15T05:26:22;8.30;99.90
2010;DHT22;1008;47.404;8.502;2022-11-15T05:28:52;8.30;99.90
2010;DHT22;1008;47.404;8.502;2022-11-15T05:31:19;8.40;99.90
2010;DHT22;1008;47.404;8.502;2022-11-15T05:33:46;8.30;99.90
2010;DHT22;1008;47.404;8.502;2022-11-15T05:36:17;8.50;99.90
2010;DHT22;1008;47.404;8.502;2022-11-15T05:38:45;8.30;99.90
2010;DHT22;1008;47.404;8.502;2022-11-15T05:41:13;8.30;99.90
2010;DHT22;1008;47.404;8.502;2022-11-15T05:43:42;8.40;99.90
2010;DHT22;1008;47.404;8.502;2022-11-15T05:46:10;8.50;99.90
2010;DHT22;1008;47.404;8.502;2022-11-15T05:48:37;8.50;99.90
2010;DHT22;1008;47.404;8.502;2022-11-15T05:51:07;8.40;99.90
2010;DHT22;1008;47.404;8.502;2022-11-15T05:53:35;8.50;99.90
2010;DHT22;1008;47.404;8.502;2022-11-15T05:56:02;8.50;99.90
2010;DHT22;1008;47.404;8.502;2022-11-15T05:58:31;8.50;99.90
2010;DHT22;1008;47.404;8.502;2022-11-15T06:00:59;8.60;99.90
2010;DHT22;1008;47.404;8.502;2022-11-15T06:03:26;8.50;99.90
2010;DHT22;1008;47.404;8.502;2022-11-15T06:05:53;8.50;99.90
2010;DHT22;1008;47.404;8.502;2022-11-15T06:08:20;8.60;99.90
2010;DHT22;1008;47.404;8.502;2022-11-15T06:10:46;8.60;99.90
2010;DHT22;1008;47.404;8.502;2022-11-15T06:13:13;8.60;99.90
2010;DHT22;1008;47.404;8.502;2022-11-15T06:15:40;8.40;99.90
2010;DHT22;1008;47.404;8.502;2022-11-15T06:18:08;8.60;99.90
2010;DHT22;1008;47.404;8.502;2022-11-15T06:20:35;8.80;99.90
2010;DHT22;1008;47.404;8.502;2022-11-15T06:23:04;8.80;99.90
2010;DHT22;1008;47.404;8.502;2022-11-15T06:25:31;8.80;99.90
2010;DHT22;1008;47.404;8.502;2022-11-15T06:27:59;8.80;99.90
2010;DHT22;1008;47.404;8.502;2022-11-15T06:30:26;8.70;99.90
2010;DHT22;1008;47.404;8.502;2022-11-15T06:32:59;8.70;99.90
2010;DHT22;1008;47.404;8.502;2022-11-15T06:35:28;8.70;99.90
2010;DHT22;1008;47.404;8.502;2022-11-15T06:37:56;8.60;99.90
2010;DHT22;1008;47.404;8.502;2022-11-15T06:40:26;8.50;99.90
2010;DHT22;1008;47.404;8.502;2022-11-15T06:42:57;8.50;99.90
2010;DHT22;1008;47.404;8.502;2022-11-15T06:45:24;8.50;99.90
2010;DHT22;1008;47.404;8.502;2022-11-15T06:47:51;8.70;99.90
2010;DHT22;1008;47.404;8.502;2022-11-15T06:50:18;8.60;99.90
2010;DHT22;1008;47.404;8.502;2022-11-15T06:52:46;8.70;99.90
2010;DHT22;1008;47.404;8.502;2022-11-15T06:55:13;8.90;99.90
2010;DHT22;1008;47.404;8.502;2022-11-15T06:57:47;8.90;99.90
2010;DHT22;1008;47.404;8.502;2022-11-15T07:00:15;8.90;99.90
2010;DHT22;1008;47.404;8.502;2022-11-15T07:02:42;8.90;99.90
2010;DHT22;1008;47.404;8.502;2022-11-15T07:05:09;9.00;99.90
2010;DHT22;1008;47.404;8.502;2022-11-15T07:07:35;9.10;99.90
2010;DHT22;1008;47.404;8.502;2022-11-15T07:10:04;9.40;99.90
2010;DHT22;1008;47.404;8.502;2022-11-15T07:12:31;9.30;99.90
2010;DHT22;1008;47.404;8.502;2022-11-15T07:14:58;9.20;99.90
2010;DHT22;1008;47.404;8.502;2022-11-15T07:17:25;9.10;99.90
2010;DHT22;1008;47.404;8.502;2022-11-15T07:19:51;9.10;99.90
2010;DHT22;1008;47.404;8.502;2022-11-15T07:22:18;9.20;99.90
2010;DHT22;1008;47.404;8.502;2022-11-15T07:24:45;9.20;99.90
2010;DHT22;1008;47.404;8.502;2022-11-15T07:27:13;9.30;99.90
2010;DHT22;1008;47.404;8.502;2022-11-15T07:29:40;9.20;99.90
2010;DHT22;1008;47.404;8.502;2022-11-15T07:32:07;9.30;99.90
2010;DHT22;1008;47.404;8.502;2022-11-15T07:34:33;9.20;99.90
2010;DHT22;1008;47.404;8.502;2022-11-15T07:37:00;9.20;99.90
2010;DHT22;1008;47.404;8.502;2022-11-15T07:39:27;9.20;99.90
2010;DHT22;1008;47.404;8.502;2022-11-15T07:41:53;9.10;99.90
2010;DHT22;1008;47.404;8.502;2022-11-15T07:44:42;9.30;99.90
2010;DHT22;1008;47.404;8.502;2022-11-15T07:47:08;9.60;99.90
2010;DHT22;1008;47.404;8.502;2022-11-15T07:49:35;9.90;99.90
2010;DHT22;1008;47.404;8.502;2022-11-15T07:52:02;10.30;99.90
2010;DHT22;1008;47.404;8.502;2022-11-15T07:54:29;10.60;99.90
2010;DHT22;1008;47.404;8.502;2022-11-15T07:56:56;10.80;99.90
2010;DHT22;1008;47.404;8.502;2022-11-15T07:59:23;11.10;99.90
2010;DHT22;1008;47.404;8.502;2022-11-15T08:01:51;11.00;99.90
2010;DHT22;1008;47.404;8.502;2022-11-15T08:04:17;10.80;99.90
2010;DHT22;1008;47.404;8.502;2022-11-15T08:06:44;10.60;99.90
2010;DHT22;1008;47.404;8.502;2022-11-15T08:09:11;10.60;99.90
2010;DHT22;1008;47.404;8.502;2022-11-15T08:11:38;10.40;99.90
2010;DHT22;1008;47.404;8.502;2022-11-15T08:14:05;10.40;99.90
2010;DHT22;1008;47.404;8.502;2022-11-15T08:16:31;10.40;99.90
2010;DHT22;1008;47.404;8.502;2022-11-15T08:19:00;10.70;99.90
2010;DHT22;1008;47.404;8.502;2022-11-15T08:21:27;10.70;99.90
2010;DHT22;1008;47.404;8.502;2022-11-15T08:23:53;10.70;99.90
2010;DHT22;1008;47.404;8.502;2022-11-15T08:26:20;10.60;99.90
2010;DHT22;1008;47.404;8.502;2022-11-15T08:28:47;10.50;99.90
2010;DHT22;1008;47.404;8.502;2022-11-15T08:31:15;10.30;99.90
2010;DHT22;1008;47.404;8.502;2022-11-15T08:33:43;10.30;99.90
2010;DHT22;1008;47.404;8.502;2022-11-15T08:36:14;10.30;99.90
2010;DHT22;1008;47.404;8.502;2022-11-15T08:38:41;10.30;99.90
2010;DHT22;1008;47.404;8.502;2022-11-15T08:41:13;10.20;99.90
2010;DHT22;1008;47.404;8.502;2022-11-15T08:43:43;10.20;99.90
2010;DHT22;1008;47.404;8.502;2022-11-15T08:46:12;10.50;99.90
2010;DHT22;1008;47.404;8.502;2022-11-15T08:48:39;10.50;99.90
2010;DHT22;1008;47.404;8.502;2022-11-15T08:51:06;10.70;99.90
2010;DHT22;1008;47.404;8.502;2022-11-15T08:53:35;10.70;99.90
2010;DHT22;1008;47.404;8.502;2022-11-15T08:56:02;10.30;99.90
2010;DHT22;1008;47.404;8.502;2022-11-15T08:58:28;10.30;99.90
2010;DHT22;1008;47.404;8.502;2022-11-15T09:00:55;10.30;99.90
2010;DHT22;1008;47.404;8.502;2022-11-15T09:03:22;10.30;99.90
2010;DHT22;1008;47.404;8.502;2022-11-15T09:05:53;10.50;99.90
2010;DHT22;1008;47.404;8.502;2022-11-15T09:08:20;10.80;99.90
2010;DHT22;1008;47.404;8.502;2022-11-15T09:10:48;10.80;99.90
2010;DHT22;1008;47.404;8.502;2022-11-15T09:13:15;10.80;99.90
2010;DHT22;1008;47.404;8.502;2022-11-15T09:15:42;11.20;99.90
2010;DHT22;1008;47.404;8.502;2022-11-15T09:18:08;10.70;99.90
2010;DHT22;1008;47.404;8.502;2022-11-15T09:20:35;10.40;99.90
2010;DHT22;1008;47.404;8.502;2022-11-15T09:23:03;10.30;99.90
2010;DHT22;1008;47.404;8.502;2022-11-15T09:25:30;10.20;99.90
2010;DHT22;1008;47.404;8.502;2022-11-15T09:27:58;10.30;99.90
2010;DHT22;1008;47.404;8.502;2022-11-15T09:30:25;10.50;99.90
2010;DHT22;1008;47.404;8.502;2022-11-15T09:32:52;10.70;99.90
2010;DHT22;1008;47.404;8.502;2022-11-15T09:35:19;10.70;99.90
2010;DHT22;1008;47.404;8.502;2022-11-15T09:37:45;10.90;99.90
2010;DHT22;1008;47.404;8.502;2022-11-15T09:40:14;11.10;99.90
2010;DHT22;1008;47.404;8.502;2022-11-15T09:42:55;11.10;99.90
2010;DHT22;1008;47.404;8.502;2022-11-15T09:45:31;11.00;99.90
2010;DHT22;1008;47.404;8.502;2022-11-15T09:48:20;10.80;99.90
2010;DHT22;1008;47.404;8.502;2022-11-15T09:50:52;10.90;99.90
2010;DHT22;1008;47.404;8.502;2022-11-15T09:53:27;10.70;99.90
2010;DHT22;1008;47.404;8.502;2022-11-15T09:56:00;10.50;99.90
2010;DHT22;1008;47.404;8.502;2022-11-15T09:58:35;10.50;99.90
2010;DHT22;1008;47.404;8.502;2022-11-15T10:01:08;10.60;99.90
2010;DHT22;1008;47.404;8.502;2022-11-15T10:03:39;10.80;99.90
2010;DHT22;1008;47.404;8.502;2022-11-15T10:06:15;10.80;99.90
2010;DHT22;1008;47.404;8.502;2022-11-15T10:08:51;10.90;99.90
2010;DHT22;1008;47.404;8.502;2022-11-15T10:11:23;11.00;99.90
2010;DHT22;1008;47.404;8.502;2022-11-15T10:13:52;11.20;99.90
2010;DHT22;1008;47.404;8.502;2022-11-15T10:16:41;11.40;99.90
2010;DHT22;1008;47.404;8.502;2022-11-15T10:19:18;11.50;99.90
2010;DHT22;1008;47.404;8.502;2022-11-15T10:21:52;11.40;99.90
2010;DHT22;1008;47.404;8.502;2022-11-15T10:24:25;11.30;99.90
2010;DHT22;1008;47.404;8.502;2022-11-15T10:26:54;11.50;99.90
2010;DHT22;1008;47.404;8.502;2022-11-15T10:29:23;11.60;99.90
2010;DHT22;1008;47.404;8.502;2022-11-15T10:31:52;11.70;99.90
2010;DHT22;1008;47.404;8.502;2022-11-15T10:34:20;11.60;99.90
2010;DHT22;1008;47.404;8.502;2022-11-15T10:36:54;11.20;99.90
2010;DHT22;1008;47.404;8.502;2022-11-15T10:39:21;11.10;99.90
2010;DHT22;1008;47.404;8.502;2022-11-15T10:41:48;11.00;99.90
2010;DHT22;1008;47.404;8.502;2022-11-15T10:44:26;11.10;99.90
2010;DHT22;1008;47.404;8.502;2022-11-15T10:47:27;11.00;99.90
2010;DHT22;1008;47.404;8.502;2022-11-15T10:50:02;11.00;99.90
2010;DHT22;1008;47.404;8.502;2022-11-15T10:52:30;11.10;99.90
2010;DHT22;1008;47.404;8.502;2022-11-15T10:55:03;11.20;99.90
2010;DHT22;1008;47.404;8.502;2022-11-15T10:57:32;11.20;99.90
2010;DHT22;1008;47.404;8.502;2022-11-15T11:00:02;11.20;99.90
2010;DHT22;1008;47.404;8.502;2022-11-15T11:02:34;11.10;99.90
2010;DHT22;1008;47.404;8.502;2022-11-15T11:05:03;11.20;99.90
2010;DHT22;1008;47.404;8.502;2022-11-15T11:07:31;11.40;99.90
2010;DHT22;1008;47.404;8.502;2022-11-15T11:10:01;11.60;99.90
2010;DHT22;1008;47.404;8.502;2022-11-15T11:12:30;11.70;99.90
2010;DHT22;1008;47.404;8.502;2022-11-15T11:15:02;11.80;99.90
2010;DHT22;1008;47.404;8.502;2022-11-15T11:17:49;12.00;99.90
2010;DHT22;1008;47.404;8.502;2022-11-15T11:20:22;12.00;99.90
2010;DHT22;1008;47.404;8.502;2022-11-15T11:23:03;12.10;99.90
2010;DHT22;1008;47.404;8.502;2022-11-15T11:25:35;12.10;99.90
2010;DHT22;1008;47.404;8.502;2022-11-15T11:28:18;12.10;99.90
2010;DHT22;1008;47.404;8.502;2022-11-15T11:30:57;11.90;99.90
2010;DHT22;1008;47.404;8.502;2022-11-15T11:33:31;11.70;99.90
2010;DHT22;1008;47.404;8.502;2022-11-15T11:36:16;11.70;99.90
2010;DHT22;1008;47.404;8.502;2022-11-15T11:38:58;11.90;99.90
2010;DHT22;1008;47.404;8.502;2022-11-15T11:41:40;11.90;99.90
2010;DHT22;1008;47.404;8.502;2022-11-15T11:44:19;11.80;99.90
2010;DHT22;1008;47.404;8.502;2022-11-15T11:46:55;11.90;99.90
2010;DHT22;1008;47.404;8.502;2022-11-15T11:49:32;11.90;99.90
2010;DHT22;1008;47.404;8.502;2022-11-15T11:52:08;12.10;99.90
2010;DHT22;1008;47.404;8.502;2022-11-15T11:54:45;12.20;99.90
2010;DHT22;1008;47.404;8.502;2022-11-15T11:57:20;12.30;99.90
2010;DHT22;1008;47.404;8.502;2022-11-15T11:59:53;12.40;99.90
2010;DHT22;1008;47.404;8.502;2022-11-15T12:02:27;12.40;99.90
2010;DHT22;1008;47.404;8.502;2022-11-15T12:05:03;12.40;99.90
2010;DHT22;1008;47.404;8.502;2022-11-15T12:07:32;12.30;99.90
2010;DHT22;1008;47.404;8.502;2022-11-15T12:10:04;12.30;99.90
2010;DHT22;1008;47.404;8.502;2022-11-15T12:12:36;12.40;99.90
2010;DHT22;1008;47.404;8.502;2022-11-15T12:15:12;12.30;99.90
2010;DHT22;1008;47.404;8.502;2022-11-15T12:17:41;12.40;99.90
2010;DHT22;1008;47.404;8.502;2022-11-15T12:20:17;12.50;99.90
2010;DHT22;1008;47.404;8.502;2022-11-15T12:22:49;12.40;99.90
2010;DHT22;1008;47.404;8.502;2022-11-15T12:25:21;12.20;99.90
2010;DHT22;1008;47.404;8.502;2022-11-15T12:27:52;12.10;99.90
2010;DHT22;1008;47.404;8.502;2022-11-15T12:30:21;12.20;99.90
2010;DHT22;1008;47.404;8.502;2022-11-15T12:32:51;12.60;99.90
2010;DHT22;1008;47.404;8.502;2022-11-15T12:35:26;12.40;99.90
2010;DHT22;1008;47.404;8.502;2022-11-15T12:37:54;12.40;99.90
2010;DHT22;1008;47.404;8.502;2022-11-15T12:40:35;12.60;99.90
2010;DHT22;1008;47.404;8.502;2022-11-15T12:43:10;12.80;99.90
2010;DHT22;1008;47.404;8.502;2022-11-15T12:45:53;12.90;99.90
2010;DHT22;1008;47.404;8.502;2022-11-15T12:48:48;12.80;99.90
2010;DHT22;1008;47.404;8.502;2022-11-15T12:51:18;12.90;99.90
2010;DHT22;1008;47.404;8.502;2022-11-15T12:53:45;12.90;99.90
2010;DHT22;1008;47.404;8.502;2022-11-15T12:56:21;13.00;99.90
2010;DHT22;1008;47.404;8.502;2022-11-15T12:58:52;13.10;99.90
2010;DHT22;1008;47.404;8.502;2022-11-15T13:01:52;13.20;99.90
2010;DHT22;1008;47.404;8.502;2022-11-15T13:04:27;13.00;99.90
2010;DHT22;1008;47.404;8.502;2022-11-15T13:06:57;13.00;99.90
2010;DHT22;1008;47.404;8.502;2022-11-15T13:12:53;12.60;99.90
2010;DHT22;1008;47.404;8.502;2022-11-15T13:15:54;12.60;99.90
2010;DHT22;1008;47.404;8.502;2022-11-15T13:18:43;12.40;99.90
2010;DHT22;1008;47.404;8.502;2022-11-15T13:21:21;12.40;99.90
2010;DHT22;1008;47.404;8.502;2022-11-15T13:24:13;12.30;99.90
2010;DHT22;1008;47.404;8.502;2022-11-15T13:26:42;12.20;99.90
2010;DHT22;1008;47.404;8.502;2022-11-15T13:29:16;12.30;99.90
2010;DHT22;1008;47.404;8.502;2022-11-15T13:31:44;12.40;99.90
2010;DHT22;1008;47.404;8.502;2022-11-15T13:34:30;12.30;99.90
2010;DHT22;1008;47.404;8.502;2022-11-15T13:36:59;12.20;99.90
2010;DHT22;1008;47.404;8.502;2022-11-15T13:39:30;12.10;99.90
2010;DHT22;1008;47.404;8.502;2022-11-15T13:41:58;12.20;99.90
2010;DHT22;1008;47.404;8.502;2022-11-15T13:44:26;12.20;99.90
2010;DHT22;1008;47.404;8.502;2022-11-15T13:47:05;12.30;99.90
2010;DHT22;1008;47.404;8.502;2022-11-15T13:49:33;12.40;99.90
2010;DHT22;1008;47.404;8.502;2022-11-15T13:52:03;12.40;99.90
2010;DHT22;1008;47.404;8.502;2022-11-15T13:54:35;12.50;99.90
2010;DHT22;1008;47.404;8.502;2022-11-15T13:57:05;12.50;99.90
2010;DHT22;1008;47.404;8.502;2022-11-15T13:59:37;12.50;99.90
2010;DHT22;1008;47.404;8.502;2022-11-15T14:02:12;12.50;99.90
2010;DHT22;1008;47.404;8.502;2022-11-15T14:04:46;12.50;99.90
2010;DHT22;1008;47.404;8.502;2022-11-15T14:07:16;12.50;99.90
2010;DHT22;1008;47.404;8.502;2022-11-15T14:09:45;12.60;99.90
2010;DHT22;1008;47.404;8.502;2022-11-15T14:12:27;12.50;99.90
2010;DHT22;1008;47.404;8.502;2022-11-15T14:14:56;12.40;99.90
2010;DHT22;1008;47.404;8.502;2022-11-15T14:17:35;12.40;99.90
2010;DHT22;1008;47.404;8.502;2022-11-15T14:22:51;12.40;99.90
2010;DHT22;1008;47.404;8.502;2022-11-15T14:25:21;12.30;99.90
2010;DHT22;1008;47.404;8.502;2022-11-15T14:28:08;12.20;99.90
2010;DHT22;1008;47.404;8.502;2022-11-15T14:30:35;12.20;99.90
2010;DHT22;1008;47.404;8.502;2022-11-15T14:33:17;12.20;99.90
2010;DHT22;1008;47.404;8.502;2022-11-15T14:35:44;12.20;99.90
2010;DHT22;1008;47.404;8.502;2022-11-15T14:38:11;12.30;99.90
2010;DHT22;1008;47.404;8.502;2022-11-15T14:40:42;12.40;99.90
2010;DHT22;1008;47.404;8.502;2022-11-15T14:43:10;12.50;99.90
2010;DHT22;1008;47.404;8.502;2022-11-15T14:45:37;12.40;99.90
2010;DHT22;1008;47.404;8.502;2022-11-15T14:48:04;12.30;99.90
2010;DHT22;1008;47.404;8.502;2022-11-15T14:50:32;12.30;99.90
2010;DHT22;1008;47.404;8.502;2022-11-15T14:53:00;12.30;99.90
2010;DHT22;1008;47.404;8.502;2022-11-15T14:55:28;12.30;99.90
2010;DHT22;1008;47.404;8.502;2022-11-15T14:57:58;12.00;99.90
2010;DHT22;1008;47.404;8.502;2022-11-15T15:00:27;11.90;99.90
2010;DHT22;1008;47.404;8.502;2022-11-15T15:02:54;12.00;99.90
2010;DHT22;1008;47.404;8.502;2022-11-15T15:05:23;12.00;99.90
2010;DHT22;1008;47.404;8.502;2022-11-15T15:07:50;11.90;99.90
2010;DHT22;1008;47.404;8.502;2022-11-15T15:10:19;12.10;99.90
2010;DHT22;1008;47.404;8.502;2022-11-15T15:12:46;12.10;99.90
2010;DHT22;1008;47.404;8.502;2022-11-15T15:15:15;12.00;99.90
2010;DHT22;1008;47.404;8.502;2022-11-15T15:17:43;12.00;99.90
2010;DHT22;1008;47.404;8.502;2022-11-15T15:20:10;11.90;99.90
2010;DHT22;1008;47.404;8.502;2022-11-15T15:22:37;12.00;99.90
2010;DHT22;1008;47.404;8.502;2022-11-15T15:25:18;12.00;99.90
2010;DHT22;1008;47.404;8.502;2022-11-15T15:27:46;12.00;99.90
2010;DHT22;1008;47.404;8.502;2022-11-15T15:30:14;12.00;99.90
2010;DHT22;1008;47.404;8.502;2022-11-15T15:32:41;11.90;99.90
2010;DHT22;1008;47.404;8.502;2022-11-15T15:35:10;12.00;99.90
2010;DHT22;1008;47.404;8.502;2022-11-15T15:37:38;12.10;99.90
2010;DHT22;1008;47.404;8.502;2022-11-15T15:40:12;12.10;99.90
2010;DHT22;1008;47.404;8.502;2022-11-15T15:42:39;11.90;99.90
2010;DHT22;1008;47.404;8.502;2022-11-15T15:45:07;11.70;99.90
2010;DHT22;1008;47.404;8.502;2022-11-15T15:47:36;11.50;99.90
2010;DHT22;1008;47.404;8.502;2022-11-15T15:50:03;11.50;99.90
2010;DHT22;1008;47.404;8.502;2022-11-15T15:52:30;11.50;99.90
2010;DHT22;1008;47.404;8.502;2022-11-15T15:54:57;11.60;99.90
2010;DHT22;1008;47.404;8.502;2022-11-15T15:57:23;11.50;99.90
2010;DHT22;1008;47.404;8.502;2022-11-15T15:59:50;11.60;99.90
2010;DHT22;1008;47.404;8.502;2022-11-15T16:02:17;11.60;99.90
2010;DHT22;1008;47.404;8.502;2022-11-15T16:04:45;11.40;99.90
2010;DHT22;1008;47.404;8.502;2022-11-15T16:07:16;11.50;99.90
2010;DHT22;1008;47.404;8.502;2022-11-15T16:09:44;11.50;99.90
2010;DHT22;1008;47.404;8.502;2022-11-15T16:12:30;11.70;99.90
2010;DHT22;1008;47.404;8.502;2022-11-15T16:14:57;11.40;99.90
2010;DHT22;1008;47.404;8.502;2022-11-15T16:17:25;11.30;99.90
2010;DHT22;1008;47.404;8.502;2022-11-15T16:19:54;11.30;99.90
2010;DHT22;1008;47.404;8.502;2022-11-15T16:22:21;11.30;99.90
2010;DHT22;1008;47.404;8.502;2022-11-15T16:24:48;11.30;99.90
2010;DHT22;1008;47.404;8.502;2022-11-15T16:27:15;11.30;99.90
2010;DHT22;1008;47.404;8.502;2022-11-15T16:29:42;11.30;99.90
2010;DHT22;1008;47.404;8.502;2022-11-15T16:32:09;11.20;99.90
2010;DHT22;1008;47.404;8.502;2022-11-15T16:34:36;11.30;99.90
2010;DHT22;1008;47.404;8.502;2022-11-15T16:37:05;11.20;99.90
2010;DHT22;1008;47.404;8.502;2022-11-15T16:39:31;11.30;99.90